Time;durP1;ratioP1;P1;durP2;ratioP2;P2;SDS_P1;SDS_P2;PMS_P1;PMS_P2;Temp;Humidity;BMP_temperature;BMP_pressure;BME280_temperature;BME280_humidity;BME280_pressure;Samples;Min_cycle;Max_cycle;Signal;HPM_P1;HPM_P2
2022/08/16 00:02:02;;;;;;;;;;;;;;;27.87;39.41;99444.19;5406874;32;35081;-71
2022/08/16 00:05:14;;;;;;;;;;;;;;;27.19;40.27;99443.69;5412305;32;34470;-70
2022/08/16 00:08:17;;;;;;;;;;;;;;;27.34;40.00;99432.84;5419762;32;37586;-69
2022/08/16 00:11:38;;;;;;;;;;;;;;;27.40;39.67;99448.28;5404783;32;45445;-70
2022/08/16 00:14:40;;;;;;;;;;;;;;;26.92;41.26;99456.00;5426514;32;35589;-71
2022/08/16 00:17:42;;;;;;;;;;;;;;;27.17;40.83;99448.41;5385264;32;35096;-71
2022/08/16 00:20:58;;;;;;;;;;;;;;;27.61;39.80;99450.16;5423761;32;44710;-69
2022/08/16 00:24:00;;;;;;;;;;;;;;;26.56;42.26;99447.81;5400938;32;36290;-70
2022/08/16 00:27:05;;;;;;;;;;;;;;;27.23;40.80;99455.75;5409422;32;34666;-70
2022/08/16 00:30:10;;;;;;;;;;;;;;;27.11;41.00;99456.44;5429781;32;35949;-70
2022/08/16 00:33:30;;;;;;;;;;;;;;;26.65;41.80;99457.47;5408848;32;44863;-68
2022/08/16 00:36:32;;;;;;;;;;;;;;;27.08;41.01;99459.53;5401252;32;34890;-70
2022/08/16 00:39:34;;;;;;;;;;;;;;;26.64;41.90;99453.09;5383496;32;34774;-68
2022/08/16 00:42:36;;;;;;;;;;;;;;;26.48;42.12;99455.16;5396839;32;35504;-70
2022/08/16 00:45:40;;;;;;;;;;;;;;;26.42;42.20;99457.56;5431880;32;35154;-70
2022/08/16 00:49:02;;;;;;;;;;;;;;;26.44;42.56;99460.06;5397760;32;45253;-70
2022/08/16 00:52:05;;;;;;;;;;;;;;;26.26;43.32;99460.37;5410242;32;36238;-67
2022/08/16 00:55:27;;;;;;;;;;;;;;;26.76;42.50;99466.13;5415293;32;35023;-68
2022/08/16 00:58:43;;;;;;;;;;;;;;;26.31;42.93;99474.16;5409841;32;34769;-70
2022/08/16 01:01:47;;;;;;;;;;;;;;;26.94;41.34;99467.41;5410436;32;34689;-70
2022/08/16 01:04:49;;;;;;;;;;;;;;;27.22;41.16;99461.34;5398950;32;35254;-68
2022/08/16 01:08:12;;;;;;;;;;;;;;;27.58;40.06;99466.75;5424594;32;35416;-70
2022/08/16 01:11:34;;;;;;;;;;;;;;;27.24;40.65;99479.03;5393238;32;45496;-70
2022/08/16 01:14:56;;;;;;;;;;;;;;;26.63;41.85;99477.56;5409392;32;34743;-69
2022/08/16 01:17:58;;;;;;;;;;;;;;;25.43;45.12;99479.19;5388037;32;44762;-70
2022/08/16 01:21:24;;;;;;;;;;;;;;;26.03;43.79;99475.75;5394258;32;35338;-69
2022/08/16 01:24:38;;;;;;;;;;;;;;;26.81;42.17;99469.94;5421832;32;44714;-68
2022/08/16 01:27:56;;;;;;;;;;;;;;;26.69;41.89;99457.94;5410615;32;35006;-69
2022/08/16 01:30:58;;;;;;;;;;;;;;;25.65;44.74;99479.22;5397060;32;47266;-69
2022/08/16 01:34:00;;;;;;;;;;;;;;;25.32;45.91;99486.66;5414868;32;36023;-69
2022/08/16 01:37:06;;;;;;;;;;;;;;;25.75;44.83;99476.31;5397298;32;33250;-69
2022/08/16 01:40:11;;;;;;;;;;;;;;;26.00;44.07;99482.34;5427673;32;34618;-69
2022/08/16 01:43:13;;;;;;;;;;;;;;;26.62;42.44;99481.28;5395375;32;35058;-69
2022/08/16 01:46:19;;;;;;;;;;;;;;;26.04;43.43;99482.81;5411042;32;35771;-67
2022/08/16 01:49:40;;;;;;;;;;;;;;;25.73;44.20;99478.34;5412219;32;35563;-70
2022/08/16 01:53:02;;;;;;;;;;;;;;;25.95;43.66;99473.13;5406306;32;44789;-71
2022/08/16 01:56:05;;;;;;;;;;;;;;;25.84;43.93;99486.00;5414820;32;35492;-70
2022/08/16 01:59:08;;;;;;;;;;;;;;;25.32;44.89;99473.22;5410444;32;34616;-69
2022/08/16 02:02:17;;;;;;;;;;;;;;;25.56;44.66;99484.81;5406823;32;34909;-70
2022/08/16 02:05:29;;;;;;;;;;;;;;;26.42;41.84;99476.44;5415585;32;44995;-69
2022/08/16 02:08:31;;;;;;;;;;;;;;;25.72;43.45;99467.72;5390674;32;35698;-69
2022/08/16 02:11:35;;;;;;;;;;;;;;;25.59;43.85;99468.31;5408144;32;34793;-69
2022/08/16 02:14:49;;;;;;;;;;;;;;;24.86;45.64;99469.53;5407627;32;34006;-68
2022/08/16 02:17:55;;;;;;;;;;;;;;;25.13;45.42;99473.66;5388251;32;34293;-70
2022/08/16 02:20:57;;;;;;;;;;;;;;;25.62;44.46;99476.88;5422648;32;35094;-70
2022/08/16 02:24:00;;;;;;;;;;;;;;;25.41;44.80;99473.97;5410141;32;46702;-69
2022/08/16 02:27:23;;;;;;;;;;;;;;;26.09;43.30;99469.66;5427311;32;34262;-70
2022/08/16 02:30:26;;;;;;;;;;;;;;;26.46;42.33;99469.63;5395515;32;34197;-69
2022/08/16 02:33:44;;;;;;;;;;;;;;;25.48;44.77;99466.03;5415669;32;35317;-71
2022/08/16 02:36:51;;;;;;;;;;;;;;;25.70;44.51;99453.59;5408806;32;35652;-69
2022/08/16 02:39:53;;;;;;;;;;;;;;;26.39;42.84;99460.59;5393458;32;35028;-70
2022/08/16 02:42:55;;;;;;;;;;;;;;;26.37;42.58;99462.63;5426450;32;34965;-69
2022/08/16 02:45:57;;;;;;;;;;;;;;;25.88;43.73;99462.25;5397487;32;34657;-71
2022/08/16 02:48:59;;;;;;;;;;;;;;;25.19;45.38;99475.63;5411841;32;44210;-68
2022/08/16 02:52:02;;;;;;;;;;;;;;;24.64;46.65;99465.72;5406240;32;34153;-68
2022/08/16 02:55:10;;;;;;;;;;;;;;;24.62;46.64;99472.28;5412353;32;35425;-69
2022/08/16 02:58:16;;;;;;;;;;;;;;;24.64;46.28;99473.78;5411769;32;36821;-71
2022/08/16 03:01:21;;;;;;;;;;;;;;;25.11;45.48;99478.34;5406607;32;36959;-70
2022/08/16 03:04:35;;;;;;;;;;;;;;;24.80;46.60;99470.22;5427356;32;44502;-69
2022/08/16 03:07:53;;;;;;;;;;;;;;;24.87;46.17;99465.84;5394672;32;36735;-68
2022/08/16 03:10:57;;;;;;;;;;;;;;;25.26;45.36;99473.06;5409995;32;35334;-68
2022/08/16 03:14:00;;;;;;;;;;;;;;;25.52;44.84;99473.59;5407987;32;45666;-68
2022/08/16 03:17:08;;;;;;;;;;;;;;;24.61;46.44;99482.22;5371137;32;34890;-69
2022/08/16 03:20:11;;;;;;;;;;;;;;;24.70;46.36;99489.22;5424883;32;33318;-70
2022/08/16 03:23:13;;;;;;;;;;;;;;;24.90;46.34;99486.12;5408675;32;34943;-69
2022/08/16 03:26:17;;;;;;;;;;;;;;;25.36;45.23;99484.44;5427239;32;34629;-70
2022/08/16 03:29:19;;;;;;;;;;;;;;;25.06;45.73;99495.00;5398166;32;34572;-67
2022/08/16 03:32:23;;;;;;;;;;;;;;;25.10;45.77;99492.78;5389661;32;35210;-68
2022/08/16 03:35:31;;;;;;;;;;;;;;;24.44;47.54;99499.34;5427328;32;34326;-69
2022/08/16 03:38:34;;;;;;;;;;;;;;;24.39;47.54;99509.75;5408055;32;45313;-67
2022/08/16 03:41:39;;;;;;;;;;;;;;;24.02;48.17;99517.31;5412952;32;34745;-68
2022/08/16 03:44:51;;;;;;;;;;;;;;;24.24;47.68;99518.47;5412463;32;34212;-67
2022/08/16 03:48:04;;;;;;;;;;;;;;;24.38;47.33;99516.97;5411562;32;44892;-68
2022/08/16 03:51:09;;;;;;;;;;;;;;;23.55;49.36;99529.59;5412347;32;37028;-69
2022/08/16 03:54:13;;;;;;;;;;;;;;;24.61;46.72;99535.09;5396242;32;36579;-70
2022/08/16 03:57:15;;;;;;;;;;;;;;;23.91;48.50;99532.91;5428935;32;34981;-69
2022/08/16 04:00:18;;;;;;;;;;;;;;;24.20;47.83;99535.91;5395940;32;34312;-69
2022/08/16 04:03:40;;;;;;;;;;;;;;;24.56;47.25;99530.22;5571451;27;34296;-72
2022/08/16 04:06:42;;;;;;;;;;;;;;;24.25;48.07;99528.22;5345411;32;34942;-71
2022/08/16 04:09:44;;;;;;;;;;;;;;;25.25;45.02;99536.78;5328308;32;44935;-73
2022/08/16 04:12:46;;;;;;;;;;;;;;;24.18;47.82;99531.75;5331498;32;35884;-72
2022/08/16 04:16:08;;;;;;;;;;;;;;;23.95;48.48;99527.00;5344289;32;35189;-71
2022/08/16 04:19:28;;;;;;;;;;;;;;;24.74;46.54;99528.19;5314748;32;34651;-72
2022/08/16 04:22:32;;;;;;;;;;;;;;;24.99;44.88;99530.78;5365273;32;34756;-71
2022/08/16 04:25:34;;;;;;;;;;;;;;;25.55;43.96;99526.19;5384731;32;34960;-73
2022/08/16 04:28:36;;;;;;;;;;;;;;;25.34;44.09;99541.09;5365852;32;34649;-74
2022/08/16 04:31:56;;;;;;;;;;;;;;;25.06;44.69;99542.56;5391640;32;34461;-74
2022/08/16 04:34:59;;;;;;;;;;;;;;;25.29;44.32;99546.16;5353453;32;34907;-73
2022/08/16 04:38:08;;;;;;;;;;;;;;;24.54;45.83;99549.22;5381282;32;34860;-75
2022/08/16 04:41:21;;;;;;;;;;;;;;;24.37;46.45;99538.66;5381662;32;45457;-74
2022/08/16 04:44:33;;;;;;;;;;;;;;;24.69;45.81;99543.13;5352771;32;34176;-75
2022/08/16 04:47:56;;;;;;;;;;;;;;;25.32;44.55;99537.75;5386872;32;36581;-74
2022/08/16 04:50:58;;;;;;;;;;;;;;;24.65;46.57;99539.09;5352362;32;34778;-73
2022/08/16 04:53:59;;;;;;;;;;;;;;;25.30;45.32;99547.00;5365324;32;35554;-71
2022/08/16 04:57:04;;;;;;;;;;;;;;;25.48;45.33;99533.28;5344721;32;35851;-70
2022/08/16 05:00:12;;;;;;;;;;;;;;;26.12;44.00;99525.81;5361358;32;36584;-74
2022/08/16 05:03:32;;;;;;;;;;;;;;;25.43;46.03;99533.81;5380930;32;34243;-71
2022/08/16 05:06:34;;;;;;;;;;;;;;;26.28;44.50;99528.41;5348432;32;34277;-72
2022/08/16 05:09:47;;;;;;;;;;;;;;;26.22;49.38;99536.37;5376899;32;44687;-75
2022/08/16 05:12:49;;;;;;;;;;;;;;;26.53;47.95;99542.47;5360565;32;33866;-75
2022/08/16 05:15:52;;;;;;;;;;;;;;;26.06;49.86;99545.41;5371037;32;35173;-73
2022/08/16 05:18:58;;;;;;;;;;;;;;;25.86;53.03;99553.09;5378680;32;35320;-75
2022/08/16 05:22:00;;;;;;;;;;;;;;;25.95;51.70;99548.50;5366048;32;34059;-75
2022/08/16 05:25:02;;;;;;;;;;;;;;;26.12;50.49;99558.13;5386837;32;34418;-75
2022/08/16 05:28:10;;;;;;;;;;;;;;;25.05;53.15;99562.38;5365046;32;36964;-72
2022/08/16 05:31:12;;;;;;;;;;;;;;;24.52;58.12;99564.63;5371215;32;34356;-71
2022/08/16 05:34:17;;;;;;;;;;;;;;;24.63;53.53;99573.38;5369870;32;44290;-73
2022/08/16 05:37:23;;;;;;;;;;;;;;;25.55;52.75;99563.84;5363362;32;34960;-75
2022/08/16 05:40:25;;;;;;;;;;;;;;;25.31;53.48;99572.88;5375842;32;35482;-70
2022/08/16 05:43:27;;;;;;;;;;;;;;;25.85;49.76;99565.72;5369805;32;37328;-78
2022/08/16 05:46:32;;;;;;;;;;;;;;;25.66;51.12;99558.06;5398049;32;35144;-73
2022/08/16 05:49:35;;;;;;;;;;;;;;;27.09;47.10;99558.28;5363268;32;34543;-70
2022/08/16 05:52:40;;;;;;;;;;;;;;;27.64;46.18;99554.22;5363932;32;34635;-75
2022/08/16 05:55:45;;;;;;;;;;;;;;;27.68;44.97;99559.06;5369916;32;45190;-72
2022/08/16 05:58:47;;;;;;;;;;;;;;;27.64;45.06;99552.34;5355918;32;34246;-75
2022/08/16 06:01:51;;;;;;;;;;;;;;;27.06;44.54;99550.56;5379235;32;33574;-78
2022/08/16 06:04:54;;;;;;;;;;;;;;;28.24;42.96;99550.28;5367018;32;35376;-72
2022/08/16 06:07:56;;;;;;;;;;;;;;;27.96;45.53;99544.81;5379271;32;35513;-75
2022/08/16 06:10:59;;;;;;;;;;;;;;;28.86;41.71;99546.84;5381756;32;34014;-70
2022/08/16 06:14:11;;;;;;;;;;;;;;;29.31;40.74;99553.56;5369804;32;35295;-76
2022/08/16 06:17:15;;;;;;;;;;;;;;;28.35;41.66;99548.97;5386365;32;44671;-68
2022/08/16 06:20:23;;;;;;;;;;;;;;;29.10;40.39;99559.91;5374911;32;35568;-74
2022/08/16 06:23:36;;;;;;;;;;;;;;;29.42;40.56;99557.56;5376527;32;36827;-77
2022/08/16 06:26:38;;;;;;;;;;;;;;;28.07;41.50;99566.72;5357842;32;34156;-74
2022/08/16 06:29:58;;;;;;;;;;;;;;;28.25;40.51;99562.75;5361265;32;34436;-76
2022/08/16 06:33:02;;;;;;;;;;;;;;;29.61;37.55;99562.25;5370838;32;34250;-76
2022/08/16 06:36:04;;;;;;;;;;;;;;;29.85;38.08;99562.72;5368775;32;35330;-70
2022/08/16 06:39:09;;;;;;;;;;;;;;;30.52;36.86;99552.81;5368602;32;34117;-71
2022/08/16 06:42:11;;;;;;;;;;;;;;;29.83;37.24;99545.88;5359290;32;34498;-80
2022/08/16 06:45:19;;;;;;;;;;;;;;;30.36;37.39;99548.66;5381041;32;46098;-75
2022/08/16 06:48:24;;;;;;;;;;;;;;;30.87;34.85;99546.13;5377976;32;34317;-72
2022/08/16 06:51:35;;;;;;;;;;;;;;;32.15;32.46;99535.34;5364289;32;34692;-70
2022/08/16 06:54:48;;;;;;;;;;;;;;;31.61;33.15;99533.16;5376564;32;45096;-72
2022/08/16 06:57:51;;;;;;;;;;;;;;;30.96;33.89;99549.44;5355482;32;34308;-80
2022/08/16 07:00:53;;;;;;;;;;;;;;;31.54;33.02;99542.16;5386308;32;34476;-78
2022/08/16 07:03:58;;;;;;;;;;;;;;;32.07;31.76;99543.75;5371598;32;35537;-81
2022/08/16 07:07:11;;;;;;;;;;;;;;;31.21;33.04;99545.00;5371951;32;35485;-72
2022/08/16 07:10:16;;;;;;;;;;;;;;;31.23;32.84;99542.91;5386647;32;44256;-80
2022/08/16 07:13:18;;;;;;;;;;;;;;;30.54;33.81;99545.31;5374076;32;34183;-82
2022/08/16 07:16:40;;;;;;;;;;;;;;;31.87;32.58;99554.75;5386005;32;36056;-78
2022/08/16 07:19:43;;;;;;;;;;;;;;;30.95;33.87;99554.03;5371680;32;34537;-72
2022/08/16 07:23:06;;;;;;;;;;;;;;;31.48;32.34;99551.19;5359907;32;35980;-71
2022/08/16 07:26:18;;;;;;;;;;;;;;;30.55;33.33;99558.66;5373725;32;43673;-72
2022/08/16 07:29:26;;;;;;;;;;;;;;;30.16;34.82;99557.63;5363756;32;34172;-74
2022/08/16 07:32:32;;;;;;;;;;;;;;;30.84;32.86;99551.13;5375220;32;35872;-73
2022/08/16 07:35:35;;;;;;;;;;;;;;;30.55;33.49;99557.84;5372014;32;35256;-70
2022/08/16 07:38:45;;;;;;;;;;;;;;;30.99;32.70;99565.31;5374133;32;43026;-76
2022/08/16 07:41:47;;;;;;;;;;;;;;;31.90;31.40;99569.81;5388223;32;34102;-80
2022/08/16 07:44:50;;;;;;;;;;;;;;;31.36;31.65;99576.50;5375072;32;34380;-71
2022/08/16 07:47:52;;;;;;;;;;;;;;;30.72;32.72;99572.63;5388272;32;34495;-85
2022/08/16 07:50:55;;;;;;;;;;;;;;;30.67;33.06;99569.72;5373483;32;34534;-69
2022/08/16 07:54:01;;;;;;;;;;;;;;;31.12;31.91;99569.88;5375812;32;33005;-71
2022/08/16 07:57:11;;;;;;;;;;;;;;;31.66;31.18;99577.62;5347235;32;35348;-68
2022/08/16 08:00:14;;;;;;;;;;;;;;;30.98;31.71;99575.34;5370494;32;44420;-70
2022/08/16 08:03:19;;;;;;;;;;;;;;;31.14;31.46;99562.34;5384264;32;36194;-74
2022/08/16 08:06:23;;;;;;;;;;;;;;;31.52;30.93;99565.16;5377652;32;34363;-75
2022/08/16 08:09:26;;;;;;;;;;;;;;;30.41;32.39;99568.69;5369489;32;34262;-81
2022/08/16 08:12:27;;;;;;;;;;;;;;;30.04;32.52;99563.81;5370361;32;35655;-71
2022/08/16 08:15:37;;;;;;;;;;;;;;;30.06;32.55;99565.28;5373532;32;35161;-70
2022/08/16 08:18:53;;;;;;;;;;;;;;;30.70;31.48;99567.44;5375309;32;44414;-86
2022/08/16 08:22:02;;;;;;;;;;;;;;;29.52;33.37;99576.16;5357397;32;34385;-78
2022/08/16 08:25:07;;;;;;;;;;;;;;;30.97;31.40;99573.66;5384653;32;34037;-70
2022/08/16 08:28:14;;;;;;;;;;;;;;;31.24;31.03;99579.06;5372409;32;34220;-77
2022/08/16 08:31:16;;;;;;;;;;;;;;;31.53;31.02;99578.53;5371327;32;44669;-76
2022/08/16 08:34:18;;;;;;;;;;;;;;;32.20;30.52;99579.03;5380196;32;34163;-69
2022/08/16 08:37:21;;;;;;;;;;;;;;;33.39;28.51;99583.41;5375528;32;34980;-69
2022/08/16 08:40:25;;;;;;;;;;;;;;;34.85;26.04;99567.63;5390877;32;32976;-69
2022/08/16 08:43:29;;;;;;;;;;;;;;;33.61;27.81;99577.47;5364019;32;36907;-67
2022/08/16 08:46:42;;;;;;;;;;;;;;;34.12;27.16;99576.16;5389977;32;35904;-64
2022/08/16 08:50:02;;;;;;;;;;;;;;;34.17;26.82;99576.31;5376613;32;35867;-72
2022/08/16 08:53:05;;;;;;;;;;;;;;;37.66;21.60;99573.41;5379038;32;34420;-75
2022/08/16 08:56:07;;;;;;;;;;;;;;;38.91;20.12;99563.06;5378930;32;34355;-73
2022/08/16 08:59:26;;;;;;;;;;;;;;;35.48;24.53;99566.84;5371271;32;35035;-65
2022/08/16 09:02:28;;;;;;;;;;;;;;;38.77;20.59;99555.53;5384793;32;34346;-66
2022/08/16 09:05:30;;;;;;;;;;;;;;;39.52;18.52;99562.53;5371618;32;34348;-66
2022/08/16 09:08:38;;;;;;;;;;;;;;;38.57;20.48;99557.03;5379426;32;36183;-80
2022/08/16 09:11:48;;;;;;;;;;;;;;;38.50;20.93;99555.59;5384459;32;44559;-82
2022/08/16 09:14:55;;;;;;;;;;;;;;;37.23;22.08;99558.63;5341207;32;989213;-73
2022/08/16 09:17:57;;;;;;;;;;;;;;;37.29;22.30;99554.03;5388741;32;34865;-68
2022/08/16 09:21:00;;;;;;;;;;;;;;;40.08;18.60;99546.22;5375048;32;34183;-73
2022/08/16 09:24:03;;;;;;;;;;;;;;;39.02;19.19;99550.19;5390145;32;34236;-72
2022/08/16 09:27:10;;;;;;;;;;;;;;;38.41;19.52;99547.03;5364180;32;34228;-79
2022/08/16 09:30:13;;;;;;;;;;;;;;;37.92;19.95;99545.19;5357215;32;34285;-83
2022/08/16 09:33:35;;;;;;;;;;;;;;;38.94;18.66;99534.22;5384757;32;34356;-81
2022/08/16 09:36:40;;;;;;;;;;;;;;;38.83;18.45;99532.50;5378316;32;36306;-68
2022/08/16 09:39:47;;;;;;;;;;;;;;;39.37;18.45;99532.25;5386799;32;44523;-75
2022/08/16 09:42:54;;;;;;;;;;;;;;;37.99;19.71;99531.28;5378422;32;34396;-81
2022/08/16 09:46:00;;;;;;;;;;;;;;;42.71;15.26;99527.97;5373656;32;35438;-76
2022/08/16 09:49:03;;;;;;;;;;;;;;;41.85;15.89;99522.03;5368951;32;34228;-76
2022/08/16 09:52:09;;;;;;;;;;;;;;;39.90;17.80;99527.44;5359067;32;35298;-81
2022/08/16 09:55:12;;;;;;;;;;;;;;;41.66;15.52;99534.81;5385032;32;35000;-74
2022/08/16 09:58:14;;;;;;;;;;;;;;;40.66;15.93;99530.22;5340107;32;45187;-70
2022/08/16 10:01:37;;;;;;;;;;;;;;;40.03;16.58;99530.50;5368411;32;34350;-74
2022/08/16 10:04:44;;;;;;;;;;;;;;;39.23;17.38;99527.25;5361250;32;44592;-76
2022/08/16 10:07:55;;;;;;;;;;;;;;;39.05;17.65;99521.37;5375379;32;34833;-78
2022/08/16 10:14:29;;;;;;;;;;;;;;;40.51;16.15;99516.47;5374713;32;36141;-87
2022/08/16 10:17:34;;;;;;;;;;;;;;;40.62;16.06;99509.84;5359114;32;35338;-79
2022/08/16 10:20:37;;;;;;;;;;;;;;;39.95;16.54;99516.47;5383969;32;34123;-73
2022/08/16 10:23:39;;;;;;;;;;;;;;;42.44;14.55;99509.97;5372505;32;34116;-74
2022/08/16 10:26:44;;;;;;;;;;;;;;;44.21;12.73;99496.91;5390367;32;35532;-84
2022/08/16 10:30:06;;;;;;;;;;;;;;;44.49;12.38;99497.78;5356611;32;34849;-77
2022/08/16 10:33:28;;;;;;;;;;;;;;;43.28;13.56;99501.31;5379302;32;35853;-75
2022/08/16 10:36:34;;;;;;;;;;;;;;;44.56;12.61;99502.91;5384595;32;34237;-78
2022/08/16 10:39:40;;;;;;;;;;;;;;;43.82;12.74;99502.81;5359809;32;34840;-79
2022/08/16 10:42:43;;;;;;;;;;;;;;;45.26;11.41;99502.66;5382734;32;34844;-80
2022/08/16 10:45:47;;;;;;;;;;;;;;;41.84;13.92;99509.38;5363988;32;44641;-75
2022/08/16 10:49:01;;;;;;;;;;;;;;;40.96;14.69;99507.28;5369844;32;34149;-74
2022/08/16 10:52:06;;;;;;;;;;;;;;;39.97;15.79;99506.00;5377418;32;34173;-75
2022/08/16 10:55:20;;;;;;;;;;;;;;;38.44;17.22;99505.31;5366016;32;46112;-70
2022/08/16 10:58:42;;;;;;;;;;;;;;;37.70;17.70;99502.47;5373569;32;36688;-80
2022/08/16 11:01:44;;;;;;;;;;;;;;;37.51;17.77;99502.81;5371267;32;47307;-73
2022/08/16 11:05:10;;;;;;;;;;;;;;;37.38;18.17;99495.81;5374628;32;34621;-75
2022/08/16 11:08:12;;;;;;;;;;;;;;;36.88;18.82;99493.25;5373491;32;35635;-77
2022/08/16 11:11:17;;;;;;;;;;;;;;;39.03;16.74;99485.91;5371626;32;44590;-78
2022/08/16 11:14:20;;;;;;;;;;;;;;;38.86;16.65;99485.31;5384565;32;34355;-76
2022/08/16 11:17:22;;;;;;;;;;;;;;;39.49;16.11;99488.88;5374249;32;35406;-78
2022/08/16 11:20:25;;;;;;;;;;;;;;;40.94;14.40;99481.97;5381544;32;35437;-76
2022/08/16 11:23:47;;;;;;;;;;;;;;;43.69;12.04;99482.22;5370393;32;46457;-75
2022/08/16 11:26:59;;;;;;;;;;;;;;;44.28;11.92;99477.97;5372570;32;34110;-74
2022/08/16 11:30:21;;;;;;;;;;;;;;;44.85;11.54;99494.34;5359516;32;44925;-82
2022/08/16 11:33:38;;;;;;;;;;;;;;;40.08;16.78;99504.94;5355708;32;35444;-70
2022/08/16 11:36:56;;;;;;;;;;;;;;;40.80;16.43;99495.47;5376227;32;34251;-70
2022/08/16 11:40:03;;;;;;;;;;;;;;;37.17;20.21;99520.47;5375936;32;34413;-72
2022/08/16 11:43:06;;;;;;;;;;;;;;;37.84;20.00;99523.75;5366219;32;35258;-74
2022/08/16 11:46:12;;;;;;;;;;;;;;;36.97;21.00;99532.81;5381791;32;34789;-75
2022/08/16 11:49:33;;;;;;;;;;;;;;;35.38;22.77;99538.50;5354089;32;36161;-70
2022/08/16 11:52:36;;;;;;;;;;;;;;;35.30;22.99;99544.34;5388178;32;34691;-72
2022/08/16 11:55:39;;;;;;;;;;;;;;;35.33;22.96;99543.84;5365309;32;34160;-78
2022/08/16 11:58:45;;;;;;;;;;;;;;;34.45;23.49;99559.28;5345202;32;46325;-74
2022/08/16 12:01:57;;;;;;;;;;;;;;;34.77;23.07;99546.13;5386322;32;34228;-79
2022/08/16 12:05:22;;;;;;;;;;;;;;;34.56;23.74;99538.56;5366262;32;45178;-75
2022/08/16 12:08:24;;;;;;;;;;;;;;;34.25;23.68;99532.31;5384958;32;34305;-73
2022/08/16 12:11:28;;;;;;;;;;;;;;;34.61;22.53;99528.59;5369022;32;34366;-75
2022/08/16 12:14:32;;;;;;;;;;;;;;;33.75;22.82;99537.25;5371311;32;34155;-77
2022/08/16 12:17:36;;;;;;;;;;;;;;;34.08;21.94;99526.75;5370295;32;34059;-70
2022/08/16 12:20:42;;;;;;;;;;;;;;;33.79;22.26;99533.00;5372318;32;34923;-68
2022/08/16 12:23:46;;;;;;;;;;;;;;;33.51;22.45;99533.63;5371634;32;44374;-68
2022/08/16 12:26:48;;;;;;;;;;;;;;;33.25;22.93;99527.41;5365132;32;35456;-68
2022/08/16 12:29:51;;;;;;;;;;;;;;;33.48;22.77;99525.91;5365084;32;34388;-71
2022/08/16 12:32:53;;;;;;;;;;;;;;;34.09;22.42;99522.94;5355480;32;34324;-82
2022/08/16 12:35:59;;;;;;;;;;;;;;;34.38;21.73;99526.66;5359923;32;34225;-77
2022/08/16 12:39:02;;;;;;;;;;;;;;;34.84;20.95;99518.72;5385128;32;34571;-71
2022/08/16 12:42:04;;;;;;;;;;;;;;;35.10;20.83;99517.41;5370095;32;35400;-71
2022/08/16 12:45:10;;;;;;;;;;;;;;;36.00;20.02;99512.13;5380456;32;34362;-70
2022/08/16 12:51:37;;;;;;;;;;;;;;;35.75;20.72;99519.84;5370914;32;35582;-80
2022/08/16 12:55:00;;;;;;;;;;;;;;;33.90;22.82;99524.88;5379212;32;34672;-85
2022/08/16 12:58:02;;;;;;;;;;;;;;;33.87;23.04;99530.78;5353662;32;34211;-76
2022/08/16 13:01:15;;;;;;;;;;;;;;;33.46;23.41;99525.31;5384221;32;44384;-77
2022/08/16 13:04:18;;;;;;;;;;;;;;;34.16;23.14;99507.31;5365887;32;35705;-76
2022/08/16 13:07:22;;;;;;;;;;;;;;;33.27;25.01;99511.69;5371289;32;34251;-70
2022/08/16 13:10:28;;;;;;;;;;;;;;;32.44;27.15;99514.84;5382418;32;34777;-80
2022/08/16 13:13:40;;;;;;;;;;;;;;;32.74;27.42;99495.94;5363973;32;35961;-76
2022/08/16 13:16:42;;;;;;;;;;;;;;;32.46;28.36;99492.84;5367731;32;35941;-75
2022/08/16 13:19:46;;;;;;;;;;;;;;;32.65;28.39;99489.13;5355780;32;44327;-80
2022/08/16 13:23:10;;;;;;;;;;;;;;;32.50;28.36;99486.75;5359171;32;34321;-73
2022/08/16 13:26:13;;;;;;;;;;;;;;;32.39;27.59;99486.66;5373076;32;35186;-80
2022/08/16 13:29:18;;;;;;;;;;;;;;;32.85;26.38;99480.75;5360900;32;44434;-80
2022/08/16 13:32:22;;;;;;;;;;;;;;;33.11;25.90;99487.81;5389450;32;34213;-74
2022/08/16 13:35:42;;;;;;;;;;;;;;;33.60;25.40;99486.75;5367268;32;34260;-72
2022/08/16 13:38:45;;;;;;;;;;;;;;;33.55;25.30;99483.88;5363468;32;44567;-74
2022/08/16 13:41:50;;;;;;;;;;;;;;;34.11;24.71;99481.81;5380525;32;34957;-72
2022/08/16 13:44:56;;;;;;;;;;;;;;;33.89;26.11;99486.97;5360051;32;35884;-85
2022/08/16 13:47:59;;;;;;;;;;;;;;;35.07;24.46;99487.88;5387515;32;35401;-69
2022/08/16 13:51:06;;;;;;;;;;;;;;;35.13;24.43;99475.97;5363981;32;34154;-71
2022/08/16 13:54:08;;;;;;;;;;;;;;;34.04;26.59;99472.91;5379727;32;34761;-75
2022/08/16 13:57:10;;;;;;;;;;;;;;;33.50;27.43;99481.03;5350040;32;36363;-81
2022/08/16 14:00:13;;;;;;;;;;;;;;;34.64;26.00;99470.81;5370886;32;35503;-72
2022/08/16 14:03:20;;;;;;;;;;;;;;;33.29;26.64;99463.25;5364255;32;43836;-82
2022/08/16 14:06:24;;;;;;;;;;;;;;;33.93;25.73;99459.00;5368378;32;35256;-68
2022/08/16 14:09:29;;;;;;;;;;;;;;;33.91;25.88;99457.59;5373541;32;34865;-71
2022/08/16 14:12:33;;;;;;;;;;;;;;;34.26;25.40;99460.34;5361617;32;34259;-65
2022/08/16 14:15:36;;;;;;;;;;;;;;;33.77;25.30;99454.22;5384538;32;35545;-66
2022/08/16 14:18:42;;;;;;;;;;;;;;;34.58;24.00;99457.28;5363409;32;34831;-66
2022/08/16 14:21:45;;;;;;;;;;;;;;;35.36;23.08;99456.78;5365449;32;43380;-67
2022/08/16 14:25:09;;;;;;;;;;;;;;;35.36;22.90;99450.47;5385928;32;34788;-67
2022/08/16 14:28:17;;;;;;;;;;;;;;;33.55;25.08;99450.34;5361532;32;45145;-65
2022/08/16 14:31:26;;;;;;;;;;;;;;;35.06;23.34;99457.00;5375854;32;34657;-66
2022/08/16 14:34:28;;;;;;;;;;;;;;;34.83;23.68;99449.66;5349102;32;34378;-66
2022/08/16 14:37:31;;;;;;;;;;;;;;;34.96;23.86;99454.88;5365924;32;34960;-71
2022/08/16 14:40:34;;;;;;;;;;;;;;;34.20;25.09;99464.88;5385093;32;34145;-66
2022/08/16 14:43:36;;;;;;;;;;;;;;;35.62;23.84;99479.12;5368727;32;34338;-66
2022/08/16 14:46:40;;;;;;;;;;;;;;;35.12;24.86;99477.06;5382690;32;34112;-66
2022/08/16 14:49:43;;;;;;;;;;;;;;;34.18;25.55;99477.06;5361707;32;34846;-65
2022/08/16 14:52:47;;;;;;;;;;;;;;;34.30;25.03;99482.53;5379084;32;44572;-66
2022/08/16 14:55:58;;;;;;;;;;;;;;;34.45;25.34;99481.03;5360836;32;35103;-65
2022/08/16 14:59:00;;;;;;;;;;;;;;;33.91;26.43;99493.88;5338855;32;34413;-66
2022/08/16 15:02:03;;;;;;;;;;;;;;;33.08;27.69;99515.47;5385854;32;35226;-66
2022/08/16 15:05:06;;;;;;;;;;;;;;;30.95;35.17;99510.63;5362096;32;34295;-65
2022/08/16 15:08:10;;;;;;;;;;;;;;;30.10;38.28;99517.78;5376488;32;35934;-73
2022/08/16 15:11:12;;;;;;;;;;;;;;;31.52;33.58;99521.72;5362711;32;35534;-65
2022/08/16 15:14:14;;;;;;;;;;;;;;;31.53;32.48;99528.81;5377993;32;44589;-65
2022/08/16 15:17:20;;;;;;;;;;;;;;;31.00;34.80;99526.28;5380424;32;35004;-65
2022/08/16 15:20:26;;;;;;;;;;;;;;;29.96;35.52;99526.94;5355373;32;34398;-66
2022/08/16 15:23:30;;;;;;;;;;;;;;;29.51;35.48;99542.00;5375921;32;34589;-66
2022/08/16 15:26:34;;;;;;;;;;;;;;;29.93;33.56;99539.00;5378003;32;34152;-72
2022/08/16 15:29:48;;;;;;;;;;;;;;;29.85;34.42;99528.34;5383770;32;47697;-73
2022/08/16 15:32:59;;;;;;;;;;;;;;;30.09;36.06;99535.06;5364884;32;34541;-73
2022/08/16 15:36:02;;;;;;;;;;;;;;;30.74;33.51;99529.88;5368994;32;34222;-66
2022/08/16 15:39:04;;;;;;;;;;;;;;;30.14;33.33;99527.19;5366558;32;34123;-65
2022/08/16 15:42:26;;;;;;;;;;;;;;;30.07;35.44;99526.28;5357939;32;35841;-66
2022/08/16 15:48:56;;;;;;;;;;;;;;;30.18;36.10;99523.00;5368540;32;34935;-73
2022/08/16 15:52:00;;;;;;;;;;;;;;;29.60;38.26;99528.09;5366042;32;35226;-64
2022/08/16 15:55:05;;;;;;;;;;;;;;;29.28;38.08;99536.87;5394711;32;34795;-66
2022/08/16 15:58:25;;;;;;;;;;;;;;;29.82;36.08;99531.50;5355174;32;37233;-66
2022/08/16 16:01:39;;;;;;;;;;;;;;;29.90;36.18;99516.91;5391024;32;34786;-65
2022/08/16 16:04:41;;;;;;;;;;;;;;;30.09;36.24;99531.53;5371007;32;34983;-65
2022/08/16 16:07:45;;;;;;;;;;;;;;;30.19;34.74;99530.09;5366840;32;35012;-72
2022/08/16 16:11:06;;;;;;;;;;;;;;;29.55;39.20;99529.72;5385231;32;34860;-73
2022/08/16 16:14:11;;;;;;;;;;;;;;;29.48;38.92;99531.53;5367382;32;35213;-72
2022/08/16 16:17:15;;;;;;;;;;;;;;;29.61;39.49;99528.91;5377641;32;46795;-66
2022/08/16 16:20:19;;;;;;;;;;;;;;;30.25;36.60;99541.16;5370171;32;35019;-66
2022/08/16 16:23:32;;;;;;;;;;;;;;;30.86;35.64;99528.19;5358054;32;34843;-71
2022/08/16 16:26:34;;;;;;;;;;;;;;;30.44;34.28;99519.44;5388090;32;35459;-76